Aérodrome :
LOGIN :

S'inscrire | Disclaimer

   EN    FR    IT 

 










Légende :    VFR   VFR Marginal   IFR   IFR Intensif   IFR Très Intensif
Visi : 
Plafond : 
>= 8 km
>= 3000ft
5 à 8 km
1000 à 3000 ft
1500m à 5 km
500 à 1000 ft
800 à 1500m
200 à 500 ft
< 800m
< 200 ft
Symboles :   Orages  Brouillard  Fortes neiges  Fortes précipitations  Vent > 20 kt
SIGMETs :   Divers  Orages  Givrage  Turbulence  Onde Orograph.  Cendres Volcan.






- Altitude de l'aérodrome : 3245 ft
- Code IATA : TID


DAOB - Bou Chekif - Tiaret

DERNIER METAR :
  • 050500Z 18014KT 9999 SCT026 15/08 Q1015

METARs EXPIRÉS :
  • 050400Z 27012KT 9999 SCT026 15/11 Q1014

TAF TAF DAOB
Valide du 05 à 06h jusqu'au 06 à 06h UTC


050500Z 0506/0606 24012KT 9999 SCT026
PROB30
TEMPO 0506/0510 FEW026TCU
BECMG 0521/0524 VRB02KT



MET'MAP, la Météo Aéronautique d'un coup d'oeil ! - Copyright ORBIFLY Décembre 2007 - Disclaimer

ORBIFLY MET'MAP TEAM :

Programmation & Développement : Alexandra Zaïnal
Sur une idée originale de : Baudouin d'Aumeries
Assistance à la programmation : Marc-Olivier Méhu
Soutien technique & logistique : Manuel Goepfert

Contact : metmap@orbifly.com




SOURCES & CREDITS :

   NOAA